Terminal Aerodrome Forecast
Issued by NWS Shreveport, LA

Home | Current Version | Previous Version | Text Only | Print | Product List | Glossary On
Versions: 1 2 3 4 5 6 7 8 9 10 11 12 13
667
FTUS44 KSHV 270536
TAFGGG
TAF
KGGG 270536Z 2706/2806 18003KT P6SM FEW060
      TEMPO 2711/2713 5SM BR SCT015 SCT050
     FM271300 21005KT P6SM SCT020 SCT050 SCT250
      TEMPO 2715/2717 BKN035
     FM271700 VRB06KT P6SM VCTS SCT045CB BKN250
     FM280000 VRB06KT P6SM VCTS SCT050CB BKN140 BKN250=

USA.gov is the U.S. government's official web portal to all federal, state and local government web resources and services.